Time;durP1;ratioP1;P1;durP2;ratioP2;P2;SDS_P1;SDS_P2;PMS_P1;PMS_P2;Temp;Humidity;BMP_temperature;BMP_pressure;BME280_temperature;BME280_humidity;BME280_pressure;Samples;Min_cycle;Max_cycle;Signal;HPM_P1;HPM_P2
2021/08/07 00:02:12;;;;;;;2.97;2.03;;;;;;;14.45;100.00;97425.13;5075484;28;20222;-62
2021/08/07 00:04:39;;;;;;;3.87;2.30;;;;;;;14.52;100.00;97423.56;5075237;28;20218;-62
2021/08/07 00:07:05;;;;;;;2.77;2.20;;;;;;;14.55;100.00;97412.66;5075383;28;20227;-62
2021/08/07 00:09:32;;;;;;;2.87;2.20;;;;;;;14.58;100.00;97420.31;5075151;28;20235;-63
2021/08/07 00:11:58;;;;;;;4.27;2.80;;;;;;;14.59;100.00;97420.16;5075270;28;20211;-63
2021/08/07 00:14:25;;;;;;;3.00;2.63;;;;;;;14.60;100.00;97421.84;5073539;28;20207;-64
2021/08/07 00:16:52;;;;;;;4.13;3.07;;;;;;;14.63;100.00;97418.06;5075502;28;20211;-64
2021/08/07 00:19:19;;;;;;;3.70;2.67;;;;;;;14.64;100.00;97417.06;5074787;28;20684;-64
2021/08/07 00:21:45;;;;;;;4.23;2.97;;;;;;;14.62;100.00;97403.94;5075164;28;20218;-64
2021/08/07 00:24:12;;;;;;;4.07;3.00;;;;;;;14.64;100.00;97406.44;5074649;28;20212;-63
2021/08/07 00:26:38;;;;;;;3.63;2.90;;;;;;;14.63;100.00;97407.41;5074720;28;20204;-64
2021/08/07 00:29:05;;;;;;;3.87;2.50;;;;;;;14.62;100.00;97398.63;5075033;28;20239;-62
2021/08/07 00:31:31;;;;;;;3.23;2.80;;;;;;;14.56;100.00;97399.22;5073991;28;20207;-62
2021/08/07 00:33:59;;;;;;;4.13;2.80;;;;;;;14.53;100.00;97394.16;5074983;28;20237;-62
2021/08/07 00:36:25;;;;;;;3.80;3.03;;;;;;;14.44;100.00;97397.72;5075042;28;20215;-62
2021/08/07 00:38:52;;;;;;;4.63;2.30;;;;;;;14.40;100.00;97399.00;5072962;28;20301;-64
2021/08/07 00:41:18;;;;;;;3.50;2.47;;;;;;;14.43;100.00;97400.53;5074900;28;20582;-62
2021/08/07 00:43:45;;;;;;;3.43;2.20;;;;;;;14.48;100.00;97406.25;5074447;28;20217;-63
2021/08/07 00:46:11;;;;;;;3.30;2.40;;;;;;;14.55;100.00;97396.69;5074747;28;20210;-63
2021/08/07 00:48:38;;;;;;;4.23;2.80;;;;;;;14.65;100.00;97392.13;5074488;28;20234;-63
2021/08/07 00:51:06;;;;;;;3.40;2.60;;;;;;;14.73;100.00;97394.91;5074489;28;20225;-63
2021/08/07 00:53:33;;;;;;;3.10;2.80;;;;;;;14.83;100.00;97390.34;5074336;28;20207;-63
2021/08/07 00:55:59;;;;;;;4.60;2.90;;;;;;;14.93;100.00;97391.97;5074285;28;20293;-63
2021/08/07 00:58:26;;;;;;;3.73;2.70;;;;;;;15.04;100.00;97388.25;5074063;28;20599;-63
2021/08/07 01:00:52;;;;;;;4.10;2.97;;;;;;;15.12;100.00;97385.66;5073985;28;20212;-64
2021/08/07 01:03:29;;;;;;;3.43;3.07;;;;;;;15.21;100.00;97390.09;5074207;28;20222;-63
2021/08/07 01:06:02;;;;;;;4.47;2.90;;;;;;;15.27;100.00;97389.47;5072470;28;20221;-63
2021/08/07 01:08:37;;;;;;;3.90;3.00;;;;;;;15.28;100.00;97385.81;5073980;28;20238;-63
2021/08/07 01:11:15;;;;;;;3.30;3.00;;;;;;;15.23;100.00;97388.09;5073743;28;20211;-63
2021/08/07 01:13:45;;;;;;;4.73;2.90;;;;;;;15.23;100.00;97374.78;5073687;28;20582;-63
2021/08/07 01:16:15;;;;;;;4.17;2.87;;;;;;;15.23;100.00;97377.44;5074027;28;20207;-63
2021/08/07 01:18:46;;;;;;;3.77;2.83;;;;;;;15.18;100.00;97377.06;5073903;28;20237;-63
2021/08/07 01:21:18;;;;;;;3.23;2.80;;;;;;;15.13;100.00;97368.69;5073917;28;20218;-62
2021/08/07 01:23:50;;;;;;;5.33;3.30;;;;;;;15.16;100.00;97371.06;5073937;28;20206;-63
2021/08/07 01:26:25;;;;;;;4.27;3.43;;;;;;;15.17;100.00;97367.41;5073357;28;20210;-63
2021/08/07 01:28:55;;;;;;;4.70;3.53;;;;;;;15.18;100.00;97356.63;5073443;28;20233;-63
2021/08/07 01:31:24;;;;;;;5.03;3.60;;;;;;;15.19;100.00;97357.44;5072083;28;20564;-62
2021/08/07 01:33:51;;;;;;;4.87;3.70;;;;;;;15.19;100.00;97355.63;5073624;28;20238;-63
2021/08/07 01:36:18;;;;;;;3.50;3.10;;;;;;;15.20;100.00;97357.31;5073646;28;20573;-63
2021/08/07 01:38:45;;;;;;;3.87;3.10;;;;;;;15.26;100.00;97361.16;5073449;28;20226;-63
2021/08/07 01:41:17;;;;;;;3.20;2.90;;;;;;;15.34;100.00;97359.44;5073540;28;20231;-63
2021/08/07 01:43:44;;;;;;;3.90;2.73;;;;;;;15.38;100.00;97360.81;5073270;28;20215;-63
2021/08/07 01:46:13;;;;;;;3.30;2.70;;;;;;;15.38;100.00;97357.31;5073473;28;20214;-63
2021/08/07 01:48:46;;;;;;;4.53;3.07;;;;;;;15.40;100.00;97355.34;5073321;28;20624;-62
2021/08/07 01:51:15;;;;;;;5.00;3.10;;;;;;;15.37;100.00;97343.16;5073488;28;20204;-63
2021/08/07 01:53:44;;;;;;;4.67;2.93;;;;;;;15.35;100.00;97349.63;5073044;28;20211;-63
2021/08/07 01:56:15;;;;;;;3.13;2.67;;;;;;;15.28;100.00;97333.41;5073338;28;20566;-63
2021/08/07 01:58:45;;;;;;;3.00;2.30;;;;;;;15.24;100.00;97320.56;5071898;28;20215;-63
2021/08/07 02:01:14;;;;;;;2.70;2.50;;;;;;;15.15;100.00;97322.31;5073347;28;20283;-63
2021/08/07 02:03:41;;;;;;;2.93;2.23;;;;;;;15.12;100.00;97335.94;5073063;28;20215;-63
2021/08/07 02:06:08;;;;;;;2.67;2.20;;;;;;;15.11;100.00;97341.41;5073246;28;20223;-63
2021/08/07 02:08:36;;;;;;;3.17;2.40;;;;;;;15.16;100.00;97333.81;5073297;28;20210;-63
2021/08/07 02:11:04;;;;;;;2.90;2.60;;;;;;;15.21;100.00;97344.84;5072826;28;20737;-62
2021/08/07 02:13:31;;;;;;;4.37;2.97;;;;;;;15.30;100.00;97336.75;5073112;28;20582;-63
2021/08/07 02:15:59;;;;;;;4.50;3.10;;;;;;;15.39;100.00;97343.03;5072955;28;20217;-63
2021/08/07 02:18:29;;;;;;;3.90;2.83;;;;;;;15.46;100.00;97346.75;5073100;28;20207;-63
2021/08/07 02:20:57;;;;;;;4.77;3.37;;;;;;;15.52;100.00;97336.28;5073278;28;20222;-63
2021/08/07 02:23:24;;;;;;;5.57;3.43;;;;;;;15.55;100.00;97329.81;5071346;28;20214;-63
2021/08/07 02:25:55;;;;;;;4.57;2.93;;;;;;;15.53;100.00;97321.97;5072654;28;20208;-63
2021/08/07 02:28:23;;;;;;;4.53;3.30;;;;;;;15.51;100.00;97328.47;5072954;28;20207;-63
2021/08/07 02:30:51;;;;;;;4.70;3.23;;;;;;;15.51;100.00;97323.16;5072764;28;20234;-63
2021/08/07 02:33:21;;;;;;;6.60;3.77;;;;;;;15.50;100.00;97324.09;5072932;28;20214;-63
2021/08/07 02:35:50;;;;;;;3.97;3.53;;;;;;;15.52;100.00;97327.47;5072905;28;20207;-63
2021/08/07 02:38:18;;;;;;;5.00;3.43;;;;;;;15.49;100.00;97309.97;5072571;28;20215;-62
2021/08/07 02:40:45;;;;;;;5.57;3.37;;;;;;;15.52;100.00;97312.31;5072970;28;20219;-63
2021/08/07 02:43:12;;;;;;;4.47;3.50;;;;;;;15.51;100.00;97307.16;5072955;28;20470;-63
2021/08/07 02:45:39;;;;;;;4.80;3.10;;;;;;;15.53;100.00;97315.81;5073137;28;20592;-63
2021/08/07 02:48:06;;;;;;;4.50;3.27;;;;;;;15.54;100.00;97318.34;5072726;28;20218;-63
2021/08/07 02:50:35;;;;;;;4.37;3.33;;;;;;;15.57;100.00;97327.84;5070995;28;20230;-63
2021/08/07 02:53:03;;;;;;;4.20;3.10;;;;;;;15.58;100.00;97324.19;5072808;28;20218;-63
2021/08/07 02:55:30;;;;;;;4.83;3.23;;;;;;;15.57;100.00;97312.69;5075778;28;20230;-64
2021/08/07 02:57:57;;;;;;;3.50;3.17;;;;;;;15.54;100.00;97307.69;5076436;28;20568;-63
2021/08/07 03:00:23;;;;;;;3.83;3.33;;;;;;;15.54;100.00;97312.16;5076603;28;20215;-63
2021/08/07 03:02:50;;;;;;;4.90;3.10;;;;;;;15.56;100.00;97310.16;5076497;28;20218;-63
2021/08/07 03:05:18;;;;;;;4.30;3.20;;;;;;;15.57;100.00;97303.88;5076535;28;20218;-63
2021/08/07 03:07:44;;;;;;;4.43;3.10;;;;;;;15.58;100.00;97305.53;5076240;28;20665;-63
2021/08/07 03:10:12;;;;;;;4.03;3.33;;;;;;;15.59;100.00;97304.53;5076353;28;20577;-63
2021/08/07 03:12:39;;;;;;;4.60;3.17;;;;;;;15.59;100.00;97299.22;5076179;28;20207;-63
2021/08/07 03:15:07;;;;;;;3.10;2.80;;;;;;;15.53;100.00;97299.84;5074314;28;20207;-63
2021/08/07 03:17:34;;;;;;;5.50;3.07;;;;;;;15.45;100.00;97297.13;5075976;28;20208;-63
2021/08/07 03:20:00;;;;;;;3.23;2.93;;;;;;;15.35;100.00;97296.38;5075925;28;20215;-62
2021/08/07 03:22:27;;;;;;;3.50;3.10;;;;;;;15.30;100.00;97290.66;5076166;28;20227;-63
2021/08/07 03:24:53;;;;;;;4.70;2.83;;;;;;;15.22;100.00;97295.94;5076169;28;20222;-62
2021/08/07 03:27:21;;;;;;;4.70;3.20;;;;;;;15.12;100.00;97297.84;5075728;28;20247;-63
2021/08/07 03:29:48;;;;;;;3.60;3.30;;;;;;;15.02;100.00;97305.09;5075925;28;20238;-63
2021/08/07 03:32:14;;;;;;;3.83;2.90;;;;;;;14.94;100.00;97305.00;5076039;28;20222;-62
2021/08/07 03:34:41;;;;;;;4.53;3.20;;;;;;;14.88;100.00;97297.63;5076495;28;20239;-62
2021/08/07 03:37:07;;;;;;;3.67;3.13;;;;;;;14.84;100.00;97301.59;5075633;28;20207;-62
2021/08/07 03:39:34;;;;;;;5.10;3.10;;;;;;;14.80;100.00;97300.22;5075902;28;20241;-62
2021/08/07 03:42:00;;;;;;;4.57;3.30;;;;;;;14.76;100.00;97291.72;5074219;28;20215;-63
2021/08/07 03:44:28;;;;;;;3.77;3.10;;;;;;;14.73;100.00;97288.53;5075828;28;20207;-63
2021/08/07 03:46:54;;;;;;;3.40;3.07;;;;;;;14.71;100.00;97282.50;5075608;28;20218;-63
2021/08/07 03:49:21;;;;;;;4.67;3.20;;;;;;;14.73;100.00;97283.19;5075606;28;20227;-63
2021/08/07 03:51:47;;;;;;;4.00;3.60;;;;;;;14.70;100.00;97278.16;5075401;28;20212;-63
2021/08/07 03:54:14;;;;;;;4.20;3.30;;;;;;;14.70;100.00;97278.16;5075885;28;20219;-63
2021/08/07 03:56:41;;;;;;;4.23;3.20;;;;;;;14.68;100.00;97265.03;5075558;28;20213;-63
2021/08/07 03:59:07;;;;;;;5.40;3.40;;;;;;;14.64;100.00;97266.31;5075155;28;20215;-64
2021/08/07 04:01:35;;;;;;;4.40;3.37;;;;;;;14.56;100.00;97249.44;5075320;28;20214;-63
2021/08/07 04:04:01;;;;;;;4.07;3.53;;;;;;;14.47;100.00;97260.97;5075482;28;20237;-63
2021/08/07 04:06:28;;;;;;;5.83;3.30;;;;;;;14.39;100.00;97259.09;5075011;28;20257;-62
2021/08/07 04:08:54;;;;;;;5.27;3.70;;;;;;;14.30;100.00;97264.47;5074127;28;20219;-62
2021/08/07 04:11:21;;;;;;;5.13;3.17;;;;;;;14.27;100.00;97268.25;5075349;28;20238;-62
2021/08/07 04:13:47;;;;;;;3.70;3.17;;;;;;;14.25;100.00;97264.91;5075150;28;20215;-62
2021/08/07 04:16:14;;;;;;;3.43;3.13;;;;;;;14.23;100.00;97266.06;5075079;28;20225;-62
2021/08/07 04:18:42;;;;;;;4.80;3.40;;;;;;;14.25;100.00;97256.94;5075257;28;20219;-62
2021/08/07 04:21:08;;;;;;;4.00;3.03;;;;;;;14.27;100.00;97259.44;5074832;28;20702;-62
2021/08/07 04:23:35;;;;;;;5.07;3.43;;;;;;;14.34;100.00;97265.81;5074927;28;20216;-62
2021/08/07 04:26:01;;;;;;;4.23;3.20;;;;;;;14.35;100.00;97267.53;5075057;28;20206;-63
2021/08/07 04:28:28;;;;;;;3.17;2.87;;;;;;;14.40;100.00;97276.72;5075007;28;20210;-63
2021/08/07 04:30:54;;;;;;;3.40;3.10;;;;;;;14.45;100.00;97274.44;5074922;28;20248;-62
2021/08/07 04:33:21;;;;;;;4.47;3.00;;;;;;;14.50;100.00;97269.50;5072994;28;20213;-63
2021/08/07 04:35:48;;;;;;;3.57;2.97;;;;;;;14.54;100.00;97270.06;5074491;28;20218;-62
2021/08/07 04:38:15;;;;;;;3.97;3.23;;;;;;;14.58;100.00;97266.06;5074812;28;20567;-61
2021/08/07 04:40:41;;;;;;;4.10;3.13;;;;;;;14.61;100.00;97252.50;5074847;28;20574;-64
2021/08/07 04:43:08;;;;;;;3.67;3.03;;;;;;;14.63;100.00;97248.69;5074756;28;20226;-64
2021/08/07 04:45:34;;;;;;;6.70;3.20;;;;;;;14.67;100.00;97238.59;5074362;28;20691;-64
2021/08/07 04:48:03;;;;;;;4.70;3.13;;;;;;;14.72;100.00;97233.66;5074670;28;20205;-63
2021/08/07 04:50:33;;;;;;;5.63;2.93;;;;;;;14.75;100.00;97233.34;5074231;28;20238;-63
2021/08/07 04:53:01;;;;;;;2.60;2.40;;;;;;;14.82;100.00;97235.22;5074231;28;20242;-63
2021/08/07 04:55:28;;;;;;;3.00;2.70;;;;;;;14.91;100.00;97233.47;5074121;28;20667;-63
2021/08/07 04:57:54;;;;;;;2.83;2.60;;;;;;;15.04;100.00;97244.56;5074482;28;20218;-63
2021/08/07 05:00:22;;;;;;;3.87;2.80;;;;;;;15.20;100.00;97252.63;5072843;28;20217;-63
2021/08/07 05:02:49;;;;;;;4.70;2.70;;;;;;;15.37;100.00;97257.97;5074258;28;20251;-63
2021/08/07 05:05:17;;;;;;;4.57;3.07;;;;;;;15.54;100.00;97261.56;5074228;28;20218;-63
2021/08/07 05:07:44;;;;;;;3.03;2.73;;;;;;;15.68;100.00;97266.28;5074452;28;20222;-62
2021/08/07 05:10:13;;;;;;;3.10;2.80;;;;;;;15.82;100.00;97268.38;5074143;28;20249;-62
2021/08/07 05:12:40;;;;;;;5.00;2.60;;;;;;;15.98;100.00;97272.78;5073912;28;20591;-62
2021/08/07 05:15:08;;;;;;;4.07;3.10;;;;;;;16.12;100.00;97271.34;5074078;28;20221;-62
2021/08/07 05:17:34;;;;;;;3.03;2.57;;;;;;;16.19;100.00;97273.22;5073852;28;20215;-62
2021/08/07 05:20:01;;;;;;;3.33;2.57;;;;;;;16.22;100.00;97270.22;5073701;28;20216;-62
2021/08/07 05:22:27;;;;;;;4.20;2.80;;;;;;;16.25;100.00;97267.22;5074114;28;20208;-62
2021/08/07 05:24:54;;;;;;;3.70;2.73;;;;;;;16.28;100.00;97269.56;5071828;28;20203;-63
2021/08/07 05:27:22;;;;;;;3.17;2.63;;;;;;;16.30;100.00;97259.59;5073854;28;20242;-62
2021/08/07 05:29:48;;;;;;;3.90;2.70;;;;;;;16.31;100.00;97258.59;5073747;28;20231;-62
2021/08/07 05:32:15;;;;;;;3.07;2.53;;;;;;;16.36;100.00;97244.75;5073722;28;20225;-62
2021/08/07 05:34:41;;;;;;;2.80;2.50;;;;;;;16.42;100.00;97252.13;5073620;28;20239;-62
2021/08/07 05:37:08;;;;;;;4.10;2.90;;;;;;;16.49;100.00;97248.66;5073596;28;20208;-62
2021/08/07 05:39:34;;;;;;;2.63;2.37;;;;;;;16.57;100.00;97248.66;5073739;28;20211;-62
2021/08/07 05:42:00;;;;;;;2.57;2.37;;;;;;;16.76;100.00;97251.03;5073203;28;20207;-62
2021/08/07 05:44:28;;;;;;;3.17;2.50;;;;;;;16.96;100.00;97241.69;5073171;28;20211;-62
2021/08/07 05:46:55;;;;;;;2.80;2.40;;;;;;;17.56;100.00;97244.84;5073241;28;20212;-62
2021/08/07 05:49:21;;;;;;;4.03;2.40;;;;;;;18.61;100.00;97243.41;5073012;28;20669;-63
2021/08/07 05:51:48;;;;;;;4.20;2.50;;;;;;;19.59;94.60;97246.81;5071780;28;20604;-62
2021/08/07 05:54:16;;;;;;;3.03;2.17;;;;;;;20.62;87.18;97251.13;5073483;28;20576;-62
2021/08/07 05:56:42;;;;;;;3.67;2.50;;;;;;;21.49;81.87;97254.28;5073136;28;20212;-63
2021/08/07 05:59:09;;;;;;;2.50;2.20;;;;;;;21.82;80.02;97262.63;5073266;28;20212;-62
2021/08/07 06:01:37;;;;;;;3.97;2.27;;;;;;;21.57;79.96;97258.69;5073130;28;20560;-62
2021/08/07 06:04:03;;;;;;;2.83;2.27;;;;;;;21.44;80.42;97262.09;5073253;28;20560;-62
2021/08/07 06:06:30;;;;;;;2.40;2.10;;;;;;;21.05;82.93;97263.59;5073272;28;20207;-62
2021/08/07 06:08:56;;;;;;;2.77;2.13;;;;;;;20.64;84.89;97262.50;5073043;28;20224;-62
2021/08/07 06:11:23;;;;;;;3.33;2.10;;;;;;;20.27;86.52;97279.59;5073178;28;20235;-63
2021/08/07 06:13:49;;;;;;;2.10;1.87;;;;;;;19.99;87.91;97270.50;5073142;28;20203;-62
2021/08/07 06:16:16;;;;;;;2.40;2.00;;;;;;;19.85;89.03;97267.81;5073090;28;20581;-63
2021/08/07 06:18:43;;;;;;;2.70;2.33;;;;;;;19.77;88.93;97270.59;5071251;28;20207;-62
2021/08/07 06:21:10;;;;;;;3.40;2.30;;;;;;;19.78;89.05;97267.72;5073066;28;20214;-63
2021/08/07 06:23:37;;;;;;;2.60;2.13;;;;;;;19.82;88.45;97260.97;5073325;28;20207;-63
2021/08/07 06:26:03;;;;;;;3.27;2.37;;;;;;;19.83;88.37;97251.94;5072985;28;20203;-63
2021/08/07 06:28:29;;;;;;;3.63;2.10;;;;;;;19.94;87.52;97256.00;5072946;28;20695;-63
2021/08/07 06:30:56;;;;;;;2.70;2.10;;;;;;;20.08;86.38;97252.50;5076620;28;20243;-63
2021/08/07 06:33:22;;;;;;;3.70;2.00;;;;;;;20.32;84.70;97250.34;5076744;28;20247;-63
2021/08/07 06:35:50;;;;;;;3.13;2.27;;;;;;;20.85;82.67;97244.53;5077075;28;20207;-63
2021/08/07 06:38:17;;;;;;;2.90;2.10;;;;;;;21.35;78.78;97233.69;5077107;28;20553;-63
2021/08/07 06:40:43;;;;;;;2.47;1.97;;;;;;;21.40;78.46;97242.00;5077371;28;20208;-63
2021/08/07 06:43:10;;;;;;;3.73;2.10;;;;;;;21.13;79.07;97226.69;5075355;28;20211;-62
2021/08/07 06:45:36;;;;;;;2.00;1.80;;;;;;;20.91;78.91;97222.31;5076922;28;20214;-63
2021/08/07 06:48:03;;;;;;;2.53;2.03;;;;;;;21.01;77.97;97213.94;5077069;28;20210;-63
2021/08/07 06:50:30;;;;;;;2.23;1.90;;;;;;;20.73;78.86;97224.59;5076945;28;20250;-63
2021/08/07 06:52:57;;;;;;;2.33;1.90;;;;;;;20.46;80.46;97230.69;5076984;28;20219;-62
2021/08/07 06:55:24;;;;;;;3.73;2.10;;;;;;;20.38;81.26;97228.13;5076541;28;20208;-63
2021/08/07 06:57:50;;;;;;;2.37;1.80;;;;;;;20.44;81.41;97238.13;5076536;28;20206;-62
2021/08/07 07:00:17;;;;;;;2.37;1.77;;;;;;;20.49;81.78;97234.88;5076628;28;20211;-62
2021/08/07 07:02:43;;;;;;;3.23;2.00;;;;;;;20.48;80.71;97234.00;5076418;28;20215;-63
2021/08/07 07:05:11;;;;;;;3.77;2.27;;;;;;;20.53;81.40;97228.91;5076672;28;20219;-63
2021/08/07 07:07:38;;;;;;;2.60;1.80;;;;;;;20.54;79.77;97224.41;5076560;28;20217;-62
2021/08/07 07:10:08;;;;;;;2.57;1.90;;;;;;;20.59;77.58;97225.47;5074726;28;20265;-63
2021/08/07 07:12:35;;;;;;;2.07;1.67;;;;;;;20.65;78.29;97219.34;5076427;28;20212;-62
2021/08/07 07:15:01;;;;;;;4.67;2.10;;;;;;;20.78;80.10;97218.66;5076259;28;20218;-62
2021/08/07 07:17:28;;;;;;;2.70;1.60;;;;;;;20.94;80.00;97216.59;5076380;28;20420;-63
2021/08/07 07:19:55;;;;;;;1.87;1.60;;;;;;;21.22;78.28;97227.38;5076249;28;20207;-63
2021/08/07 07:22:22;;;;;;;2.63;1.80;;;;;;;21.59;76.50;97235.94;5076096;28;20214;-62
2021/08/07 07:24:48;;;;;;;1.90;1.70;;;;;;;22.00;73.77;97236.06;5075804;28;20219;-62
2021/08/07 07:27:16;;;;;;;3.30;1.90;;;;;;;22.24;72.12;97246.31;5076099;28;20210;-62
2021/08/07 07:29:43;;;;;;;2.67;1.40;;;;;;;22.29;70.89;97247.38;5076009;28;20238;-62
2021/08/07 07:32:10;;;;;;;2.00;1.50;;;;;;;22.29;71.86;97247.38;5075716;28;20314;-62
2021/08/07 07:34:37;;;;;;;3.53;1.50;;;;;;;22.17;70.54;97248.97;5075259;28;20231;-63
2021/08/07 07:37:06;;;;;;;2.87;1.53;;;;;;;22.03;70.95;97254.47;5074904;28;20203;-62
2021/08/07 07:39:32;;;;;;;2.33;1.80;;;;;;;21.92;71.56;97246.94;5075214;28;20265;-63
2021/08/07 07:41:59;;;;;;;2.67;1.60;;;;;;;21.89;70.60;97253.56;5075558;28;20217;-62
2021/08/07 07:44:26;;;;;;;3.10;1.40;;;;;;;21.87;70.76;97258.31;5075543;28;20216;-62
2021/08/07 07:46:53;;;;;;;1.83;1.30;;;;;;;21.79;72.01;97250.41;5075726;28;20211;-63
2021/08/07 07:49:19;;;;;;;2.20;1.60;;;;;;;21.63;73.08;97253.34;5075499;28;20550;-61
2021/08/07 07:51:46;;;;;;;2.00;1.40;;;;;;;21.44;73.91;97254.03;5075550;28;20227;-62
2021/08/07 07:54:12;;;;;;;1.67;1.40;;;;;;;21.29;74.79;97255.97;5075721;28;20211;-63
2021/08/07 07:56:39;;;;;;;3.47;1.60;;;;;;;21.22;75.50;97249.69;5075523;28;20214;-62
2021/08/07 07:59:06;;;;;;;1.63;1.50;;;;;;;21.21;75.59;97237.28;5075157;28;20215;-63
2021/08/07 08:01:33;;;;;;;1.90;1.47;;;;;;;21.23;75.38;97229.88;5073784;28;20289;-62
2021/08/07 08:04:00;;;;;;;3.20;1.90;;;;;;;21.29;74.49;97223.72;5075143;28;20584;-63
2021/08/07 08:06:26;;;;;;;2.70;1.80;;;;;;;21.48;73.38;97217.66;5075154;28;20210;-63
2021/08/07 08:08:53;;;;;;;1.90;1.73;;;;;;;21.80;72.41;97200.94;5075423;28;20207;-64
2021/08/07 08:11:20;;;;;;;1.90;1.70;;;;;;;22.12;70.25;97205.66;5075213;28;20231;-63
2021/08/07 08:13:46;;;;;;;2.37;1.60;;;;;;;22.37;69.66;97196.03;5075258;28;20215;-63
2021/08/07 08:16:13;;;;;;;3.30;2.00;;;;;;;22.63;69.15;97188.09;5074924;28;20204;-63
2021/08/07 08:18:40;;;;;;;2.00;1.50;;;;;;;22.76;68.04;97188.13;5074909;28;20212;-63
2021/08/07 08:21:07;;;;;;;3.13;1.50;;;;;;;22.81;67.80;97176.72;5075205;28;20212;-63
2021/08/07 08:23:33;;;;;;;2.17;1.97;;;;;;;22.85;66.92;97192.25;5074779;28;20211;-62
2021/08/07 08:26:00;;;;;;;2.43;1.57;;;;;;;22.88;65.63;97199.94;5074612;28;20695;-63
2021/08/07 08:28:27;;;;;;;2.70;1.40;;;;;;;22.95;65.07;97197.25;5073416;28;20212;-63
2021/08/07 08:30:53;;;;;;;1.70;1.40;;;;;;;23.12;65.68;97193.97;5074631;28;20235;-62
2021/08/07 08:33:20;;;;;;;3.70;2.20;;;;;;;23.28;67.20;97188.19;5074544;28;20219;-63
2021/08/07 08:35:48;;;;;;;2.27;1.60;;;;;;;23.45;67.29;97184.03;5074862;28;20257;-63
2021/08/07 08:38:15;;;;;;;2.63;1.70;;;;;;;23.54;65.46;97176.56;5074513;28;20239;-64
2021/08/07 08:40:42;;;;;;;1.50;1.40;;;;;;;23.59;64.10;97174.88;5074407;28;20697;-62
2021/08/07 08:43:08;;;;;;;2.60;1.60;;;;;;;23.67;64.09;97181.91;5074447;28;20218;-63
2021/08/07 08:45:34;;;;;;;3.20;2.10;;;;;;;23.70;62.78;97187.72;5074674;28;20214;-64
2021/08/07 08:48:01;;;;;;;2.57;1.30;;;;;;;23.73;63.83;97186.47;5074493;28;20211;-62
2021/08/07 08:50:29;;;;;;;3.20;1.40;;;;;;;23.77;63.41;97183.13;5074404;28;20286;-62
2021/08/07 08:52:58;;;;;;;1.83;1.40;;;;;;;23.83;63.06;97170.69;5071808;28;20226;-64
2021/08/07 08:55:25;;;;;;;2.57;1.50;;;;;;;23.80;61.87;97169.25;5074818;28;20212;-63
2021/08/07 08:57:51;;;;;;;2.70;1.40;;;;;;;23.82;61.32;97167.16;5074115;28;20211;-62
2021/08/07 09:00:18;;;;;;;2.33;1.50;;;;;;;23.91;60.14;97183.97;5074279;28;20579;-63
2021/08/07 09:02:45;;;;;;;1.53;1.30;;;;;;;24.04;60.41;97184.78;5074330;28;20218;-64
2021/08/07 09:05:13;;;;;;;1.93;1.50;;;;;;;24.12;61.18;97181.84;5072965;28;20212;-64
2021/08/07 09:07:40;;;;;;;1.63;1.17;;;;;;;24.09;60.87;97166.03;5071556;28;20290;-63
2021/08/07 09:10:09;;;;;;;2.83;1.63;;;;;;;24.01;60.64;97171.69;5072770;28;20246;-62
2021/08/07 09:12:42;;;;;;;1.70;1.40;;;;;;;23.86;61.00;97165.69;5073132;28;20254;-63
2021/08/07 09:15:35;;;;;;;2.00;1.23;;;;;;;23.74;61.58;97162.00;5071147;28;20227;-63
2021/08/07 09:18:23;;;;;;;1.90;1.40;;;;;;;23.67;61.34;97163.03;5071728;28;20215;-63
2021/08/07 09:20:52;;;;;;;4.23;1.47;;;;;;;23.68;61.87;97173.63;5071179;28;20692;-63
2021/08/07 09:23:31;;;;;;;2.80;1.57;;;;;;;23.71;61.51;97178.59;5072167;28;20226;-64
2021/08/07 09:26:12;;;;;;;2.43;1.70;;;;;;;23.73;60.73;97176.53;5072383;28;20212;-64
2021/08/07 09:28:46;;;;;;;1.47;1.30;;;;;;;23.81;60.42;97170.91;5072427;28;20212;-64
2021/08/07 09:31:13;;;;;;;2.57;1.37;;;;;;;23.84;59.29;97167.75;5071983;28;20244;-63
2021/08/07 09:33:39;;;;;;;1.97;1.60;;;;;;;24.01;59.60;97160.09;5072322;28;20239;-64
2021/08/07 09:36:06;;;;;;;3.10;1.70;;;;;;;24.20;59.45;97159.97;5072591;28;20208;-64
2021/08/07 09:38:33;;;;;;;1.50;1.40;;;;;;;24.33;61.08;97170.72;5071756;28;20669;-64
2021/08/07 09:41:03;;;;;;;2.23;1.40;;;;;;;24.30;61.92;97171.16;5073090;28;20310;-64
2021/08/07 09:43:32;;;;;;;2.03;1.33;;;;;;;24.25;63.77;97170.97;5072961;28;20254;-63
2021/08/07 09:46:02;;;;;;;1.70;1.50;;;;;;;24.15;63.61;97173.28;5069980;28;20215;-63
2021/08/07 09:48:37;;;;;;;2.17;1.40;;;;;;;24.03;64.10;97176.88;5072257;28;20898;-64
2021/08/07 09:51:21;;;;;;;4.67;1.40;;;;;;;23.91;64.99;97183.97;5072576;28;20215;-63
2021/08/07 09:54:04;;;;;;;2.03;1.30;;;;;;;23.78;66.49;97186.69;5071860;28;20222;-63
2021/08/07 09:56:47;;;;;;;1.83;1.40;;;;;;;23.62;66.27;97196.06;5072326;28;20241;-63
2021/08/07 09:59:15;;;;;;;2.43;2.07;;;;;;;23.43;66.81;97206.84;5072905;28;20212;-64
2021/08/07 10:01:41;;;;;;;1.87;1.20;;;;;;;23.17;68.08;97223.03;5073441;28;20669;-63
2021/08/07 10:04:11;;;;;;;1.43;1.33;;;;;;;22.93;69.61;97229.78;5073436;28;20219;-63
2021/08/07 10:06:39;;;;;;;2.00;1.63;;;;;;;22.78;71.69;97234.53;5072876;28;20215;-63
2021/08/07 10:09:07;;;;;;;2.40;1.50;;;;;;;22.59;72.68;97235.31;5072869;28;20208;-64
2021/08/07 10:11:33;;;;;;;2.80;1.70;;;;;;;22.34;73.90;97236.00;5071086;28;20689;-64
2021/08/07 10:14:02;;;;;;;2.47;1.63;;;;;;;21.94;77.07;97234.16;5073001;28;20207;-63
2021/08/07 10:16:30;;;;;;;2.30;1.73;;;;;;;21.48;80.90;97231.13;5073513;28;20203;-63
2021/08/07 10:18:57;;;;;;;2.17;1.63;;;;;;;21.00;85.92;97217.66;5073160;28;20212;-62
2021/08/07 10:21:24;;;;;;;3.47;1.87;;;;;;;20.65;89.95;97207.75;5073204;28;20215;-61
2021/08/07 10:23:53;;;;;;;2.27;1.80;;;;;;;20.31;93.80;97192.31;5073016;28;20242;-61
2021/08/07 10:26:21;;;;;;;2.63;1.80;;;;;;;20.11;97.53;97193.94;5072862;28;20227;-61
2021/08/07 10:28:50;;;;;;;2.67;1.97;;;;;;;19.87;99.32;97193.41;5072946;28;20586;-61
2021/08/07 10:31:22;;;;;;;2.77;2.00;;;;;;;19.63;100.00;97194.47;5072982;28;20218;-61
2021/08/07 10:33:50;;;;;;;3.37;1.80;;;;;;;19.52;100.00;97197.63;5072689;28;20235;-62
2021/08/07 10:36:17;;;;;;;4.13;2.10;;;;;;;19.35;100.00;97198.81;5071835;28;20207;-62
2021/08/07 10:38:46;;;;;;;3.53;1.80;;;;;;;19.18;100.00;97194.59;5070556;28;20214;-62
2021/08/07 10:41:12;;;;;;;3.70;1.90;;;;;;;18.99;100.00;97195.09;5071816;28;20261;-62
2021/08/07 10:43:40;;;;;;;2.20;1.90;;;;;;;18.88;100.00;97192.84;5072212;28;20215;-62
2021/08/07 10:46:09;;;;;;;2.17;1.90;;;;;;;18.80;100.00;97189.41;5072168;28;20213;-62
2021/08/07 10:48:42;;;;;;;2.07;1.90;;;;;;;18.77;100.00;97189.78;5072494;28;20213;-62
2021/08/07 10:51:40;;;;;;;2.33;2.00;;;;;;;18.80;100.00;97184.06;5072183;28;20211;-62
2021/08/07 10:54:23;;;;;;;3.17;1.90;;;;;;;18.76;100.00;97172.03;5072298;28;20294;-62
2021/08/07 10:56:50;;;;;;;4.23;2.20;;;;;;;18.65;100.00;97153.75;5071695;28;20207;-62
2021/08/07 10:59:22;;;;;;;2.67;1.90;;;;;;;18.53;100.00;97155.97;5071693;28;20207;-62
2021/08/07 11:01:51;;;;;;;2.47;2.17;;;;;;;18.49;100.00;97165.41;5071648;28;20619;-62
2021/08/07 11:04:21;;;;;;;4.33;1.97;;;;;;;18.43;100.00;97198.22;5070138;28;20233;-62
2021/08/07 11:06:55;;;;;;;6.27;2.23;;;;;;;18.37;100.00;97201.59;5072131;28;20207;-62
2021/08/07 11:09:26;;;;;;;2.47;2.27;;;;;;;18.34;100.00;97209.16;5072061;28;20214;-62
2021/08/07 11:12:28;;;;;;;3.47;2.20;;;;;;;18.14;100.00;97190.00;5072324;28;20698;-62
2021/08/07 11:15:06;;;;;;;4.10;2.70;;;;;;;18.06;100.00;97199.91;5072560;28;20260;-62
2021/08/07 11:17:50;;;;;;;3.97;2.53;;;;;;;17.98;100.00;97182.03;5075790;28;20218;-61
2021/08/07 11:20:37;;;;;;;3.73;2.43;;;;;;;17.95;100.00;97179.72;5075517;28;20293;-62
2021/08/07 11:23:17;;;;;;;2.87;2.43;;;;;;;17.96;100.00;97178.72;5075044;28;20207;-61
2021/08/07 11:26:03;;;;;;;3.80;2.70;;;;;;;18.03;100.00;97185.03;5075395;28;20757;-61
2021/08/07 11:28:30;;;;;;;3.77;2.50;;;;;;;17.99;100.00;97190.91;5075597;28;20798;-61
2021/08/07 11:31:15;;;;;;;5.27;2.97;;;;;;;18.06;100.00;97207.91;5073823;28;20222;-61
2021/08/07 11:33:42;;;;;;;5.17;2.67;;;;;;;18.01;100.00;97216.47;5075227;28;20239;-62
2021/08/07 11:36:15;;;;;;;2.97;2.20;;;;;;;17.90;100.00;97219.53;5075163;28;20203;-61